Time;durP1;ratioP1;P1;durP2;ratioP2;P2;SDS_P1;SDS_P2;PMS_P1;PMS_P2;Temp;Humidity;BMP_temperature;BMP_pressure;BME280_temperature;BME280_humidity;BME280_pressure;Samples;Min_cycle;Max_cycle;Signal;HPM_P1;HPM_P2
2022/06/05 00:01:40;;;;;;;10.73;9.63;;;21.10;99.90;;;;;;5058223;28;20809;-86
2022/06/05 00:04:21;;;;;;;10.43;9.40;;;21.10;99.90;;;;;;5076225;28;20440;-85
2022/06/05 00:06:58;;;;;;;9.40;8.70;;;21.10;99.90;;;;;;5072964;28;20444;-86
2022/06/05 00:09:37;;;;;;;10.57;9.80;;;21.10;99.90;;;;;;5069586;28;20452;-84
2022/06/05 00:12:08;;;;;;;9.43;8.73;;;21.10;99.90;;;;;;5063787;28;20984;-85
2022/06/05 00:14:37;;;;;;;9.80;9.10;;;21.10;99.90;;;;;;5059858;28;20567;-85
2022/06/05 00:17:09;;;;;;;8.90;8.30;;;21.00;99.90;;;;;;5059742;28;20479;-85
2022/06/05 00:19:37;;;;;;;9.93;9.13;;;21.00;99.90;;;;;;5058899;28;20456;-87
2022/06/05 00:22:05;;;;;;;11.93;10.93;;;21.00;99.90;;;;;;5062099;28;20491;-85
2022/06/05 00:24:32;;;;;;;9.40;8.80;;;21.00;99.90;;;;;;5066519;28;20468;-84
2022/06/05 00:27:05;;;;;;;10.83;9.97;;;21.00;99.90;;;;;;5062428;28;20920;-86
2022/06/05 00:29:47;;;;;;;9.93;9.07;;;20.90;99.90;;;;;;5056596;28;20926;-84
2022/06/05 00:32:22;;;;;;;9.80;9.10;;;21.00;99.90;;;;;;5067891;28;20455;-82
2022/06/05 00:34:49;;;;;;;10.70;9.80;;;20.90;99.90;;;;;;5077906;28;20487;-83
2022/06/05 00:37:26;;;;;;;10.03;9.23;;;20.90;99.90;;;;;;5064599;28;20445;-84
2022/06/05 00:40:04;;;;;;;10.37;9.57;;;20.90;99.90;;;;;;5056144;28;20445;-86
2022/06/05 00:42:33;;;;;;;10.53;9.73;;;20.90;99.90;;;;;;5055837;28;20820;-84
2022/06/05 00:45:05;;;;;;;10.07;9.37;;;20.80;99.90;;;;;;5055109;28;20449;-84
2022/06/05 00:47:35;;;;;;;10.63;9.83;;;20.80;99.90;;;;;;5054816;28;20452;-84
2022/06/05 00:50:07;;;;;;;10.43;9.50;;;20.70;99.90;;;;;;5055366;28;20448;-84
2022/06/05 00:52:36;;;;;;;9.87;9.00;;;20.70;99.90;;;;;;5055530;28;20840;-84
2022/06/05 00:55:03;;;;;;;10.93;10.13;;;20.70;99.90;;;;;;5054948;28;20499;-85
2022/06/05 00:57:33;;;;;;;10.57;9.77;;;20.70;99.90;;;;;;5054635;28;20452;-85
2022/06/05 01:00:02;;;;;;;10.33;9.47;;;20.70;99.90;;;;;;5075030;28;20442;-85
2022/06/05 01:02:29;;;;;;;10.37;9.47;;;20.60;99.90;;;;;;5067608;28;20559;-85
2022/06/05 01:04:58;;;;;;;10.00;9.30;;;20.60;99.90;;;;;;5056292;28;20440;-85
2022/06/05 01:07:24;;;;;;;10.67;9.77;;;20.60;99.90;;;;;;5056885;28;20444;-85
2022/06/05 01:09:53;;;;;;;10.50;9.70;;;20.60;99.90;;;;;;5061336;28;20461;-85
2022/06/05 01:12:31;;;;;;;10.53;9.50;;;20.60;99.90;;;;;;5072923;28;20450;-84
2022/06/05 01:15:11;;;;;;;10.60;9.70;;;20.60;99.90;;;;;;5069011;28;20476;-85
2022/06/05 01:17:46;;;;;;;10.57;9.77;;;20.60;99.90;;;;;;5057167;28;20445;-85
2022/06/05 01:20:25;;;;;;;10.90;9.90;;;20.60;99.90;;;;;;5054927;28;20443;-85
2022/06/05 01:23:13;;;;;;;10.47;9.43;;;20.60;99.90;;;;;;5055239;28;20523;-85
2022/06/05 01:25:59;;;;;;;9.63;8.93;;;20.50;99.90;;;;;;5055107;28;20863;-85
2022/06/05 01:28:27;;;;;;;10.50;9.60;;;20.60;99.90;;;;;;5055392;28;20444;-85
2022/06/05 01:31:00;;;;;;;10.27;9.40;;;20.50;99.90;;;;;;5054667;28;20824;-85
2022/06/05 01:33:29;;;;;;;9.57;8.80;;;20.50;99.90;;;;;;5054440;28;20431;-85
2022/06/05 01:36:05;;;;;;;10.50;9.77;;;20.50;99.90;;;;;;5054351;28;20480;-85
2022/06/05 01:38:40;;;;;;;10.63;9.93;;;20.50;99.90;;;;;;5053819;28;20455;-85
2022/06/05 01:41:14;;;;;;;10.63;9.70;;;20.50;99.90;;;;;;5054036;28;20449;-86
2022/06/05 01:43:46;;;;;;;10.27;9.27;;;20.50;99.90;;;;;;5054352;28;20448;-86
2022/06/05 01:46:18;;;;;;;10.73;9.93;;;20.40;99.90;;;;;;5060130;28;20433;-85
2022/06/05 01:48:50;;;;;;;10.30;9.47;;;20.50;99.90;;;;;;5060742;28;20440;-85
2022/06/05 01:51:23;;;;;;;10.90;10.00;;;20.40;99.90;;;;;;5053567;28;20519;-85
2022/06/05 01:53:53;;;;;;;10.30;9.60;;;20.40;99.90;;;;;;5056436;28;20445;-85
2022/06/05 01:56:24;;;;;;;11.13;10.30;;;20.30;99.90;;;;;;5054316;28;21190;-85
2022/06/05 01:58:57;;;;;;;11.43;10.50;;;20.30;99.90;;;;;;5053168;28;20424;-85
2022/06/05 02:01:27;;;;;;;10.97;10.07;;;20.30;99.90;;;;;;5053306;28;20479;-85
2022/06/05 02:03:58;;;;;;;11.37;10.47;;;20.20;99.90;;;;;;5053806;28;20511;-85
2022/06/05 02:06:30;;;;;;;12.50;11.50;;;20.10;99.90;;;;;;5054633;28;20440;-85
2022/06/05 02:09:00;;;;;;;11.37;10.47;;;20.10;99.90;;;;;;5053750;28;20427;-86
2022/06/05 02:11:31;;;;;;;11.57;10.57;;;20.00;99.90;;;;;;5053814;28;20825;-86
2022/06/05 02:14:02;;;;;;;11.00;10.10;;;20.00;99.90;;;;;;5053857;28;20980;-85
2022/06/05 02:16:29;;;;;;;12.63;11.50;;;20.00;99.90;;;;;;5064198;28;20484;-85
2022/06/05 02:18:59;;;;;;;11.57;10.67;;;20.00;99.90;;;;;;5060445;28;20451;-85
2022/06/05 02:21:26;;;;;;;12.27;11.47;;;20.00;99.90;;;;;;5058908;28;20473;-86
2022/06/05 02:23:52;;;;;;;11.47;10.47;;;20.00;99.90;;;;;;5070621;28;20455;-85
2022/06/05 02:26:19;;;;;;;11.73;10.73;;;20.00;99.90;;;;;;5078536;28;20447;-86
2022/06/05 02:28:47;;;;;;;12.33;11.43;;;20.00;99.90;;;;;;5066328;28;20440;-85
2022/06/05 02:31:25;;;;;;;12.10;11.20;;;20.00;99.90;;;;;;5076285;28;20509;-85
2022/06/05 02:34:01;;;;;;;12.27;11.27;;;20.00;99.90;;;;;;5069078;28;20448;-85
2022/06/05 02:36:37;;;;;;;11.50;10.50;;;20.00;99.90;;;;;;5063634;28;20478;-85
2022/06/05 02:39:12;;;;;;;11.97;11.00;;;20.00;99.90;;;;;;5067105;28;20462;-86
2022/06/05 02:41:43;;;;;;;12.67;11.67;;;20.00;99.90;;;;;;5062237;28;20498;-86
2022/06/05 02:44:30;;;;;;;13.27;12.03;;;20.00;99.90;;;;;;5059976;28;20454;-85
2022/06/05 02:47:10;;;;;;;13.53;12.53;;;19.90;99.90;;;;;;5059246;28;20432;-84
2022/06/05 02:49:42;;;;;;;12.77;11.73;;;19.90;99.90;;;;;;5058500;28;20454;-85
2022/06/05 02:52:09;;;;;;;12.63;11.67;;;19.90;99.90;;;;;;5059333;28;20501;-86
2022/06/05 02:54:43;;;;;;;12.80;11.80;;;19.80;99.90;;;;;;5057453;28;20447;-85
2022/06/05 02:57:10;;;;;;;12.40;11.40;;;19.80;99.90;;;;;;5069479;28;20483;-85
2022/06/05 02:59:38;;;;;;;12.50;11.50;;;19.80;99.90;;;;;;5075436;28;20448;-85
2022/06/05 03:04:49;;;;;;;13.07;12.07;;;19.70;99.90;;;;;;5068297;28;20526;-86
2022/06/05 03:07:16;;;;;;;12.80;11.60;;;19.70;99.90;;;;;;5065021;28;20442;-85
2022/06/05 03:09:43;;;;;;;13.40;12.40;;;19.70;99.90;;;;;;5058883;28;20466;-86
2022/06/05 03:12:10;;;;;;;12.90;11.90;;;19.70;99.90;;;;;;5058159;28;20482;-85
2022/06/05 03:14:39;;;;;;;13.30;12.20;;;19.60;99.90;;;;;;5057611;28;20454;-85
2022/06/05 03:17:05;;;;;;;12.77;11.77;;;19.60;99.90;;;;;;5057442;28;20493;-85
2022/06/05 03:19:32;;;;;;;12.97;12.07;;;19.60;99.90;;;;;;5056337;28;20951;-85
2022/06/05 03:21:59;;;;;;;12.90;11.90;;;19.70;99.90;;;;;;5056386;28;20972;-85
2022/06/05 03:24:26;;;;;;;11.87;10.97;;;19.70;99.90;;;;;;5056620;28;20454;-85
2022/06/05 03:26:52;;;;;;;13.73;12.73;;;19.70;99.90;;;;;;5056768;28;20443;-85
2022/06/05 03:29:20;;;;;;;11.70;10.87;;;19.70;99.90;;;;;;5055962;28;20821;-85
2022/06/05 03:31:49;;;;;;;13.03;11.83;;;19.70;99.90;;;;;;5069850;28;20550;-85
2022/06/05 03:34:16;;;;;;;13.07;11.97;;;19.70;99.90;;;;;;5056549;28;20451;-86
2022/06/05 03:36:43;;;;;;;14.50;12.97;;;19.70;99.90;;;;;;5055478;28;20478;-85
2022/06/05 03:39:10;;;;;;;13.17;11.97;;;19.80;99.90;;;;;;5056105;28;20451;-85
2022/06/05 03:41:37;;;;;;;13.93;12.80;;;19.80;99.90;;;;;;5055992;28;20466;-85
2022/06/05 03:44:04;;;;;;;12.23;10.97;;;19.80;99.90;;;;;;5055834;28;20539;-86
2022/06/05 03:46:31;;;;;;;12.00;10.90;;;19.80;99.90;;;;;;5056916;28;20439;-85
2022/06/05 03:48:59;;;;;;;17.17;15.40;;;19.90;99.90;;;;;;5055922;28;20454;-85
2022/06/05 03:51:25;;;;;;;14.03;12.83;;;19.90;99.90;;;;;;5056193;28;20494;-85
2022/06/05 03:53:52;;;;;;;12.27;11.47;;;20.00;99.90;;;;;;5055922;28;20441;-86
2022/06/05 03:56:21;;;;;;;13.60;12.50;;;19.90;99.90;;;;;;5055836;28;21018;-85
2022/06/05 03:58:49;;;;;;;13.83;12.17;;;19.90;99.90;;;;;;5056355;28;20455;-85
2022/06/05 04:01:19;;;;;;;11.70;10.90;;;19.90;99.90;;;;;;5061112;28;20458;-85
2022/06/05 04:03:46;;;;;;;13.00;12.00;;;19.90;99.90;;;;;;5059867;28;20450;-85
2022/06/05 04:06:16;;;;;;;12.97;11.97;;;19.90;99.90;;;;;;5059317;28;20455;-85
2022/06/05 04:08:43;;;;;;;14.37;13.17;;;20.00;99.90;;;;;;5057243;28;20432;-85
2022/06/05 04:11:12;;;;;;;12.63;11.43;;;20.00;99.90;;;;;;5055821;28;20474;-85
2022/06/05 04:13:40;;;;;;;12.37;11.47;;;20.00;99.90;;;;;;5056012;28;20452;-85
2022/06/05 04:16:10;;;;;;;13.17;12.17;;;20.00;99.90;;;;;;5055946;28;20483;-85
2022/06/05 04:18:37;;;;;;;12.80;11.83;;;20.00;99.90;;;;;;5056150;28;20450;-85
2022/06/05 04:21:07;;;;;;;15.17;13.87;;;20.00;99.90;;;;;;5055436;28;20451;-85
2022/06/05 04:23:35;;;;;;;14.70;13.50;;;19.90;99.90;;;;;;5055382;28;20483;-85
2022/06/05 04:26:02;;;;;;;13.83;12.83;;;19.70;99.90;;;;;;5058613;28;20537;-85
2022/06/05 04:28:29;;;;;;;15.97;14.57;;;19.60;99.90;;;;;;5057386;28;20844;-85
2022/06/05 04:30:56;;;;;;;16.13;14.83;;;19.60;99.90;;;;;;5055873;28;20451;-86
2022/06/05 04:33:22;;;;;;;14.80;13.70;;;19.50;99.90;;;;;;5055836;28;20450;-85
2022/06/05 04:35:49;;;;;;;16.70;15.40;;;19.40;99.90;;;;;;5066046;28;20471;-85
2022/06/05 04:38:16;;;;;;;15.13;13.97;;;19.40;99.90;;;;;;5074552;28;20443;-85
2022/06/05 04:40:45;;;;;;;16.93;15.63;;;19.40;99.90;;;;;;5073637;28;20435;-84
2022/06/05 04:43:11;;;;;;;17.67;16.17;;;19.40;99.90;;;;;;5078762;28;20459;-85
2022/06/05 04:45:39;;;;;;;16.00;14.70;;;19.50;99.90;;;;;;5075875;28;20427;-87
2022/06/05 04:48:06;;;;;;;17.13;15.63;;;19.50;99.90;;;;;;5069374;28;20541;-85
2022/06/05 04:50:33;;;;;;;17.10;15.80;;;19.40;99.90;;;;;;5076453;28;20437;-85
2022/06/05 04:52:59;;;;;;;16.73;15.43;;;19.30;99.90;;;;;;5072610;28;20475;-87
2022/06/05 04:55:26;;;;;;;17.53;16.00;;;19.30;99.90;;;;;;5075800;28;20439;-84
2022/06/05 04:57:54;;;;;;;16.30;14.90;;;19.30;99.90;;;;;;5077008;28;20490;-85
2022/06/05 05:00:23;;;;;;;18.23;16.73;;;19.30;99.90;;;;;;5066845;28;20446;-86
2022/06/05 05:02:49;;;;;;;17.67;16.37;;;19.40;99.90;;;;;;5063675;28;20482;-85
2022/06/05 05:05:16;;;;;;;16.43;15.03;;;19.40;99.90;;;;;;5057294;28;20455;-86
2022/06/05 05:07:43;;;;;;;15.93;14.63;;;19.50;99.90;;;;;;5058008;28;20450;-86
2022/06/05 05:10:10;;;;;;;17.07;15.73;;;19.40;99.90;;;;;;5056720;28;20439;-86
2022/06/05 05:12:37;;;;;;;18.03;16.53;;;19.50;99.90;;;;;;5057475;28;20477;-86
2022/06/05 05:15:06;;;;;;;17.57;15.97;;;19.30;99.90;;;;;;5071199;28;20526;-85
2022/06/05 05:17:35;;;;;;;17.70;16.20;;;19.30;99.90;;;;;;5056098;28;20494;-86
2022/06/05 05:20:02;;;;;;;17.73;16.33;;;19.30;99.90;;;;;;5055953;28;20822;-86
2022/06/05 05:22:29;;;;;;;17.87;16.33;;;19.20;99.90;;;;;;5061946;28;20459;-84
2022/06/05 05:24:55;;;;;;;20.00;17.87;;;19.10;99.90;;;;;;5057694;28;20433;-85
2022/06/05 05:27:22;;;;;;;17.90;16.40;;;19.10;99.90;;;;;;5056324;28;20800;-85
2022/06/05 05:29:50;;;;;;;17.70;16.10;;;19.10;99.90;;;;;;5054601;28;20936;-85
2022/06/05 05:32:18;;;;;;;19.53;18.03;;;19.00;99.90;;;;;;5054295;28;20465;-86
2022/06/05 05:34:45;;;;;;;19.40;17.90;;;19.00;99.90;;;;;;5054161;28;20458;-86
2022/06/05 05:37:11;;;;;;;21.63;19.83;;;19.00;99.90;;;;;;5054124;28;20481;-86
2022/06/05 05:42:22;;;;;;;21.70;19.80;;;18.90;99.90;;;;;;5070104;28;20450;-86
2022/06/05 05:44:51;;;;;;;21.23;19.43;;;18.80;99.90;;;;;;5073160;28;20456;-85
2022/06/05 05:47:22;;;;;;;20.70;19.07;;;18.80;99.90;;;;;;5073102;28;20548;-85
2022/06/05 05:49:53;;;;;;;22.67;20.30;;;18.70;99.90;;;;;;5055102;28;20439;-85
2022/06/05 05:52:19;;;;;;;22.83;20.73;;;18.60;99.90;;;;;;5055015;28;20478;-84
2022/06/05 05:54:46;;;;;;;23.27;21.27;;;18.60;99.90;;;;;;5055032;28;20448;-85
2022/06/05 05:57:13;;;;;;;23.23;21.30;;;18.50;99.90;;;;;;5054491;28;20487;-85
2022/06/05 05:59:40;;;;;;;25.53;23.07;;;18.40;99.90;;;;;;5054798;28;20449;-84
2022/06/05 06:02:11;;;;;;;25.53;23.13;;;18.20;99.90;;;;;;5058444;28;20535;-85
2022/06/05 06:04:39;;;;;;;26.97;24.63;;;18.10;99.90;;;;;;5064134;28;21103;-85
2022/06/05 06:07:06;;;;;;;27.50;25.10;;;18.10;99.90;;;;;;5057182;28;20452;-85
2022/06/05 06:09:34;;;;;;;28.20;25.13;;;18.10;99.90;;;;;;5057089;28;20951;-85
2022/06/05 06:12:01;;;;;;;27.57;25.03;;;18.10;99.90;;;;;;5055819;28;20464;-86
2022/06/05 06:14:27;;;;;;;27.73;25.40;;;18.10;99.90;;;;;;5055206;28;20467;-86
2022/06/05 06:16:54;;;;;;;25.97;23.77;;;18.10;99.90;;;;;;5054841;28;20475;-85
2022/06/05 06:19:21;;;;;;;27.20;24.90;;;18.00;99.90;;;;;;5061661;28;20453;-85
2022/06/05 06:21:49;;;;;;;27.97;25.57;;;18.00;99.90;;;;;;5067354;28;20463;-86
2022/06/05 06:24:16;;;;;;;24.23;22.10;;;18.00;99.90;;;;;;5062023;28;20451;-86
2022/06/05 06:26:42;;;;;;;22.67;20.70;;;17.90;99.90;;;;;;5057271;28;20441;-85
2022/06/05 06:29:10;;;;;;;22.90;20.87;;;17.90;99.90;;;;;;5054969;28;20472;-86
2022/06/05 06:31:39;;;;;;;21.10;19.30;;;17.70;99.90;;;;;;5054859;28;20468;-86
2022/06/05 06:34:06;;;;;;;19.20;17.50;;;17.70;99.90;;;;;;5055061;28;20471;-87
2022/06/05 06:36:33;;;;;;;17.20;15.80;;;17.70;99.90;;;;;;5056027;28;20514;-87
2022/06/05 06:39:01;;;;;;;16.63;15.30;;;17.70;99.90;;;;;;5054703;28;21007;-86
2022/06/05 06:41:28;;;;;;;13.93;12.80;;;17.60;99.90;;;;;;5054401;28;20466;-87
2022/06/05 06:43:55;;;;;;;12.73;11.40;;;17.70;99.90;;;;;;5057440;28;20422;-87
2022/06/05 06:46:22;;;;;;;13.73;12.50;;;17.70;99.90;;;;;;5067716;28;20432;-86
2022/06/05 06:48:49;;;;;;;13.50;12.30;;;17.70;99.90;;;;;;5057283;28;20444;-87
2022/06/05 06:51:17;;;;;;;10.27;9.37;;;17.80;99.90;;;;;;5053969;28;20489;-86
2022/06/05 06:53:45;;;;;;;11.97;10.97;;;17.80;99.90;;;;;;5062605;28;20455;-86
2022/06/05 06:56:16;;;;;;;13.33;12.10;;;17.90;99.90;;;;;;5076239;28;20457;-86
2022/06/05 06:58:44;;;;;;;9.20;8.50;;;17.90;99.90;;;;;;5075549;28;20500;-85
2022/06/05 07:01:11;;;;;;;9.43;7.97;;;17.90;99.90;;;;;;5058586;28;20452;-86
2022/06/05 07:03:39;;;;;;;9.70;8.90;;;17.80;99.90;;;;;;5059211;28;20443;-86
2022/06/05 07:06:07;;;;;;;9.13;8.23;;;17.90;99.90;;;;;;5068625;28;20420;-85
2022/06/05 07:08:35;;;;;;;10.37;9.47;;;17.80;99.90;;;;;;5069646;28;20451;-86
2022/06/05 07:11:03;;;;;;;8.87;8.17;;;17.70;99.90;;;;;;5068964;28;20432;-86
2022/06/05 07:13:31;;;;;;;6.93;6.40;;;17.70;99.90;;;;;;5070296;28;20459;-86
2022/06/05 07:15:57;;;;;;;7.00;5.73;;;17.60;99.90;;;;;;5063565;28;20440;-86
2022/06/05 07:18:24;;;;;;;6.00;5.43;;;17.60;99.90;;;;;;5061432;28;20476;-86
2022/06/05 07:20:51;;;;;;;5.40;4.70;;;17.60;99.90;;;;;;5061121;28;20448;-86
2022/06/05 07:23:18;;;;;;;5.40;4.90;;;17.50;99.90;;;;;;5063848;28;20941;-86
2022/06/05 07:25:50;;;;;;;7.63;5.37;;;17.50;99.90;;;;;;5062410;28;20444;-86
2022/06/05 07:28:17;;;;;;;6.60;6.00;;;17.50;99.90;;;;;;5065668;28;20444;-86
2022/06/05 07:30:49;;;;;;;6.73;5.60;;;17.50;99.90;;;;;;5060083;28;20444;-87
2022/06/05 07:33:16;;;;;;;7.83;7.13;;;17.60;99.90;;;;;;5058063;28;20454;-87
2022/06/05 07:35:43;;;;;;;7.87;7.27;;;17.60;99.90;;;;;;5057500;28;20432;-86
2022/06/05 07:38:10;;;;;;;8.00;7.40;;;17.70;99.90;;;;;;5056617;28;20483;-86
2022/06/05 07:40:41;;;;;;;8.43;7.63;;;17.70;99.90;;;;;;5056081;28;20900;-87
2022/06/05 07:43:09;;;;;;;9.50;8.80;;;17.70;99.90;;;;;;5057594;28;20974;-85
2022/06/05 07:45:36;;;;;;;8.80;8.10;;;17.70;99.90;;;;;;5058118;28;20432;-84
2022/06/05 07:48:05;;;;;;;9.53;8.73;;;17.80;99.90;;;;;;5057736;28;20436;-85
2022/06/05 07:50:32;;;;;;;7.87;7.20;;;17.80;99.90;;;;;;5056719;28;20451;-85
2022/06/05 07:55:44;;;;;;;7.90;7.20;;;17.90;99.90;;;;;;5058886;28;20498;-86
2022/06/05 07:58:11;;;;;;;9.70;8.43;;;17.90;99.90;;;;;;5057464;28;20482;-86
2022/06/05 08:00:38;;;;;;;8.87;7.97;;;18.00;99.90;;;;;;5059145;28;20456;-86
2022/06/05 08:03:06;;;;;;;8.43;7.70;;;18.10;99.90;;;;;;5059239;28;20473;-86
2022/06/05 08:05:33;;;;;;;9.13;8.30;;;18.10;99.90;;;;;;5058421;28;20933;-85
2022/06/05 08:08:00;;;;;;;11.03;9.07;;;18.20;99.90;;;;;;5066805;28;20452;-86
2022/06/05 08:10:27;;;;;;;8.97;8.27;;;18.30;99.90;;;;;;5058430;28;20813;-86
2022/06/05 08:12:54;;;;;;;6.40;5.20;;;18.40;99.90;;;;;;5057444;28;20456;-85
2022/06/05 08:15:21;;;;;;;5.43;4.93;;;18.50;99.90;;;;;;5057587;28;20448;-86
2022/06/05 08:17:48;;;;;;;5.87;5.37;;;18.50;99.90;;;;;;5066668;28;20484;-86
2022/06/05 08:20:17;;;;;;;6.20;5.70;;;18.60;99.90;;;;;;5066150;28;20448;-86
2022/06/05 08:22:44;;;;;;;5.40;4.90;;;18.70;99.90;;;;;;5067255;28;20830;-85
2022/06/05 08:25:10;;;;;;;5.43;4.80;;;18.80;99.90;;;;;;5061380;28;20467;-86
2022/06/05 08:27:37;;;;;;;5.47;4.97;;;19.00;99.90;;;;;;5059888;28;20817;-85
2022/06/05 08:30:05;;;;;;;5.40;4.90;;;19.20;99.90;;;;;;5059491;28;20520;-86
2022/06/05 08:32:33;;;;;;;5.23;4.63;;;19.50;99.90;;;;;;5061906;28;20472;-86
2022/06/05 08:34:59;;;;;;;4.23;3.80;;;19.80;99.90;;;;;;5069452;28;20439;-85
2022/06/05 08:43:20;;;;;;;3.40;3.10;;;21.00;99.90;;;;;;5072984;28;20447;-84
2022/06/05 08:45:54;;;;;;;4.73;4.23;;;21.20;99.90;;;;;;5057977;28;20439;-86
2022/06/05 08:48:28;;;;;;;4.23;3.80;;;21.50;99.90;;;;;;5057779;28;20423;-85
2022/06/05 08:51:00;;;;;;;3.20;2.77;;;21.90;99.90;;;;;;5056533;28;20443;-86
2022/06/05 08:53:46;;;;;;;7.03;3.23;;;22.00;99.90;;;;;;5071475;28;20523;-85
2022/06/05 08:56:28;;;;;;;3.60;3.10;;;22.10;99.90;;;;;;5069971;28;20448;-86
2022/06/05 08:59:01;;;;;;;5.30;2.93;;;22.30;99.90;;;;;;5059252;28;20553;-86
2022/06/05 09:01:36;;;;;;;3.07;2.77;;;22.90;99.90;;;;;;5057213;28;20469;-86
2022/06/05 09:04:16;;;;;;;2.60;2.37;;;23.80;99.90;;;;;;5056755;28;20435;-85
2022/06/05 09:06:46;;;;;;;3.23;2.93;;;24.30;99.90;;;;;;5055762;28;20951;-85
2022/06/05 09:09:20;;;;;;;2.73;2.37;;;24.70;99.90;;;;;;5055502;28;20456;-85
2022/06/05 09:11:52;;;;;;;3.20;2.57;;;24.30;99.90;;;;;;5059225;28;20479;-86
2022/06/05 09:14:30;;;;;;;2.00;1.80;;;24.40;99.90;;;;;;5061935;28;20444;-85
2022/06/05 09:17:11;;;;;;;4.10;2.33;;;24.50;99.90;;;;;;5057050;28;20994;-85
2022/06/05 09:19:40;;;;;;;3.10;2.60;;;24.60;99.90;;;;;;5062909;28;20818;-86
2022/06/05 09:22:15;;;;;;;4.37;2.30;;;24.30;99.90;;;;;;5064361;28;20461;-86
2022/06/05 09:25:20;;;;;;;2.13;1.77;;;24.10;99.90;;;;;;5071555;28;20440;-85
2022/06/05 09:28:08;;;;;;;5.10;2.53;;;23.80;99.90;;;;;;5069487;28;20439;-86
2022/06/05 09:30:42;;;;;;;3.17;2.27;;;23.90;99.90;;;;;;5074498;28;20448;-86
2022/06/05 09:33:18;;;;;;;2.33;1.80;;;23.80;99.90;;;;;;5060417;28;20485;-86
2022/06/05 09:35:48;;;;;;;2.80;2.27;;;23.50;99.90;;;;;;5059704;28;20450;-86
2022/06/05 09:38:22;;;;;;;3.70;1.90;;;23.50;99.90;;;;;;5058301;28;20487;-86
2022/06/05 09:41:02;;;;;;;2.70;1.63;;;23.60;99.90;;;;;;5058390;28;20944;-86
2022/06/05 09:43:54;;;;;;;2.80;1.90;;;23.90;99.90;;;;;;5056466;28;20456;-85
2022/06/05 09:46:42;;;;;;;3.63;1.90;;;24.50;99.90;;;;;;5057647;28;20451;-86
2022/06/05 09:49:14;;;;;;;2.23;1.60;;;24.50;99.90;;;;;;5055314;28;20563;-86
2022/06/05 09:51:43;;;;;;;4.23;2.63;;;24.30;99.90;;;;;;5055256;28;20537;-86
2022/06/05 09:54:21;;;;;;;2.60;2.17;;;24.10;99.90;;;;;;5055425;28;20440;-86
2022/06/05 09:59:51;;;;;;;2.40;1.90;;;23.60;99.90;;;;;;5054120;28;20428;-86
2022/06/05 10:02:22;;;;;;;3.93;2.20;;;23.60;99.90;;;;;;5054483;28;20839;-86
2022/06/05 10:04:50;;;;;;;3.17;2.30;;;23.60;99.90;;;;;;5056032;28;20444;-86
2022/06/05 10:07:23;;;;;;;2.23;1.90;;;24.10;99.90;;;;;;5056995;28;20629;-86
2022/06/05 10:09:50;;;;;;;3.67;1.83;;;24.70;99.90;;;;;;5071746;28;20445;-85
2022/06/05 10:12:24;;;;;;;2.90;2.03;;;25.00;99.90;;;;;;5076963;28;20467;-85
2022/06/05 10:14:56;;;;;;;2.47;1.60;;;25.00;99.90;;;;;;5077923;28;20440;-85
2022/06/05 10:17:43;;;;;;;3.50;2.00;;;25.50;99.90;;;;;;5077920;28;20441;-83
2022/06/05 10:20:39;;;;;;;2.03;1.70;;;26.20;99.90;;;;;;5077531;28;20440;-84
2022/06/05 10:23:17;;;;;;;2.47;2.27;;;26.60;99.90;;;;;;5071938;28;20507;-85
2022/06/05 10:25:51;;;;;;;2.60;1.87;;;26.20;99.30;;;;;;5070063;28;20421;-86
2022/06/05 10:28:23;;;;;;;8.80;3.30;;;25.60;99.90;;;;;;5077467;28;20439;-84
2022/06/05 10:30:57;;;;;;;3.30;1.90;;;25.40;99.90;;;;;;5077320;28;20428;-85
2022/06/05 10:33:35;;;;;;;2.70;1.80;;;25.30;99.90;;;;;;5072167;28;20436;-86
2022/06/05 10:36:09;;;;;;;3.10;2.07;;;24.80;99.90;;;;;;5059091;28;20456;-86
2022/06/05 10:38:42;;;;;;;3.20;2.83;;;24.60;99.90;;;;;;5057952;28;20493;-86
2022/06/05 10:41:19;;;;;;;3.10;2.40;;;24.40;99.90;;;;;;5060154;28;20518;-86
2022/06/05 10:44:05;;;;;;;2.20;2.00;;;24.10;99.90;;;;;;5060625;28;20444;-85
2022/06/05 10:46:35;;;;;;;4.47;3.07;;;23.70;99.90;;;;;;5067671;28;20447;-84
2022/06/05 10:49:10;;;;;;;4.67;3.03;;;23.40;99.90;;;;;;5065106;28;20447;-85
2022/06/05 10:54:28;;;;;;;4.50;2.70;;;22.50;99.90;;;;;;5057780;28;20517;-84
2022/06/05 10:57:00;;;;;;;3.87;3.47;;;22.00;99.90;;;;;;5060028;28;20469;-83
2022/06/05 10:59:41;;;;;;;4.97;4.20;;;21.70;99.90;;;;;;5061193;28;20481;-84
2022/06/05 11:02:35;;;;;;;8.30;4.07;;;21.50;99.90;;;;;;5059745;28;20990;-83
2022/06/05 11:05:14;;;;;;;7.10;5.60;;;21.30;99.90;;;;;;5059362;28;20452;-83
2022/06/05 11:07:53;;;;;;;4.83;4.43;;;21.10;99.90;;;;;;5072789;28;20436;-83
2022/06/05 11:13:42;;;;;;;8.10;5.57;;;20.70;99.90;;;;;;5048238;28;20479;-83
2022/06/05 11:16:20;;;;;;;5.13;4.60;;;20.60;99.90;;;;;;5076764;28;20444;-83
2022/06/05 11:18:54;;;;;;;5.13;4.63;;;20.60;99.90;;;;;;5059821;28;20475;-83
2022/06/05 11:21:24;;;;;;;5.73;4.93;;;20.50;99.90;;;;;;5059657;28;20448;-83
2022/06/05 11:23:53;;;;;;;5.10;4.60;;;20.50;99.90;;;;;;5057242;28;20478;-83
2022/06/05 11:26:27;;;;;;;6.90;4.90;;;20.40;99.90;;;;;;5057073;28;20449;-83
2022/06/05 11:29:06;;;;;;;6.20;4.30;;;20.40;99.90;;;;;;5057097;28;20451;-84
2022/06/05 11:31:47;;;;;;;5.43;4.40;;;20.40;99.90;;;;;;5060246;28;20463;-83
2022/06/05 11:34:32;;;;;;;5.03;4.53;;;20.40;99.90;;;;;;5064565;28;20446;-82
2022/06/05 11:37:20;;;;;;;6.03;4.63;;;20.40;99.90;;;;;;5059127;28;20931;-83
2022/06/05 11:39:54;;;;;;;6.20;5.07;;;20.40;99.90;;;;;;5055827;28;20484;-83
2022/06/05 11:42:26;;;;;;;5.33;4.43;;;20.50;99.90;;;;;;5059288;28;20475;-83
2022/06/05 11:44:58;;;;;;;5.03;4.33;;;20.60;99.90;;;;;;5058669;28;20448;-82
2022/06/05 11:47:36;;;;;;;5.30;4.77;;;20.90;99.90;;;;;;5058525;28;20454;-82
2022/06/05 11:50:12;;;;;;;7.40;4.83;;;20.90;99.90;;;;;;5056047;28;20440;-83
2022/06/05 11:52:45;;;;;;;5.20;3.67;;;21.30;99.90;;;;;;5056224;28;20842;-84
2022/06/05 11:55:31;;;;;;;5.50;4.03;;;21.90;99.90;;;;;;5056315;28;20498;-83
2022/06/05 11:58:03;;;;;;;4.70;3.50;;;23.60;99.90;;;;;;5054764;28;20446;-83
2022/06/05 12:00:35;;;;;;;5.40;4.13;;;25.60;99.90;;;;;;5056680;28;20451;-82
2022/06/05 12:03:11;;;;;;;7.30;3.83;;;27.30;99.90;;;;;;5073778;28;20468;-84
2022/06/05 12:05:50;;;;;;;3.80;3.50;;;28.10;99.90;;;;;;5080127;28;20433;-83
2022/06/05 12:08:22;;;;;;;5.00;3.10;;;28.00;99.90;;;;;;5077012;28;20514;-84
2022/06/05 12:11:00;;;;;;;3.30;2.70;;;29.50;97.60;;;;;;5063115;28;20956;-84
2022/06/05 12:13:35;;;;;;;3.90;2.70;;;30.20;95.20;;;;;;5057970;28;20472;-84
2022/06/05 12:16:07;;;;;;;4.30;2.70;;;29.90;93.90;;;;;;5057166;28;20455;-85
2022/06/05 12:18:40;;;;;;;4.17;2.93;;;30.20;93.30;;;;;;5066802;28;20503;-85
2022/06/05 12:21:15;;;;;;;3.20;2.90;;;30.20;92.30;;;;;;5068745;28;20452;-84
2022/06/05 12:23:47;;;;;;;4.30;3.10;;;30.20;91.80;;;;;;5056679;28;20834;-84
2022/06/05 12:26:22;;;;;;;3.60;3.27;;;29.90;92.70;;;;;;5055380;28;20447;-85
2022/06/05 12:28:52;;;;;;;3.90;2.60;;;29.20;93.70;;;;;;5054098;28;20471;-84
2022/06/05 12:31:24;;;;;;;6.43;3.10;;;28.70;94.50;;;;;;5055434;28;20861;-85
2022/06/05 12:33:58;;;;;;;4.37;3.00;;;28.50;94.70;;;;;;5055738;28;20468;-84
2022/06/05 12:36:30;;;;;;;2.97;2.73;;;29.50;92.80;;;;;;5055478;28;20793;-85
2022/06/05 12:39:00;;;;;;;7.23;3.73;;;30.10;92.70;;;;;;5054658;28;20445;-85
2022/06/05 12:41:42;;;;;;;3.20;2.87;;;29.50;92.40;;;;;;5055435;28;20471;-85
2022/06/05 12:44:22;;;;;;;4.10;3.20;;;28.30;93.60;;;;;;5055460;28;20444;-84
2022/06/05 12:46:55;;;;;;;5.27;3.50;;;27.40;95.70;;;;;;5054850;28;20461;-85
2022/06/05 12:49:31;;;;;;;3.43;2.73;;;27.90;96.00;;;;;;5055653;28;20510;-85
2022/06/05 12:52:17;;;;;;;4.70;2.80;;;28.60;94.50;;;;;;5054610;28;20460;-85
2022/06/05 12:54:49;;;;;;;3.50;2.47;;;29.50;92.40;;;;;;5055086;28;20514;-84
2022/06/05 12:57:21;;;;;;;3.60;2.53;;;30.20;89.10;;;;;;5054866;28;20455;-83
2022/06/05 12:59:55;;;;;;;6.73;3.17;;;31.50;83.00;;;;;;5055169;28;20440;-84
2022/06/05 13:02:31;;;;;;;3.20;2.70;;;30.60;82.10;;;;;;5071696;28;20445;-83
2022/06/05 13:05:09;;;;;;;4.30;3.27;;;29.70;88.20;;;;;;5066586;28;20443;-83
2022/06/05 13:07:42;;;;;;;3.80;2.73;;;29.90;85.60;;;;;;5055843;28;20439;-83
2022/06/05 13:10:22;;;;;;;4.17;2.50;;;29.20;85.90;;;;;;5055737;28;20484;-84
2022/06/05 13:12:54;;;;;;;4.20;2.97;;;30.10;86.70;;;;;;5054989;28;20871;-83
2022/06/05 13:15:27;;;;;;;6.10;2.90;;;29.40;83.80;;;;;;5055036;28;20452;-84
2022/06/05 13:18:02;;;;;;;5.00;3.10;;;29.00;86.10;;;;;;5057357;28;20452;-84
2022/06/05 13:20:39;;;;;;;3.57;2.50;;;28.60;88.70;;;;;;5064141;28;20448;-84
2022/06/05 13:23:13;;;;;;;4.83;2.70;;;28.80;88.20;;;;;;5060000;28;20474;-85